sensor_id;sensor_type;location;lat;lon;timestamp;P1;P2;P0
76049;PMS7003;64967;50.234;19.224;2023-08-08T00:02:00;0.00;0.00;0.00
76049;PMS7003;64967;50.234;19.224;2023-08-08T00:04:32;1.00;0.00;0.00
76049;PMS7003;64967;50.234;19.224;2023-08-08T00:07:22;0.00;0.00;0.00
76049;PMS7003;64967;50.234;19.224;2023-08-08T00:10:09;0.00;0.00;0.00
76049;PMS7003;64967;50.234;19.224;2023-08-08T00:12:59;1.00;0.00;0.00
76049;PMS7003;64967;50.234;19.224;2023-08-08T00:15:55;0.00;0.00;0.00
76049;PMS7003;64967;50.234;19.224;2023-08-08T00:18:38;1.00;1.00;0.00
76049;PMS7003;64967;50.234;19.224;2023-08-08T00:21:05;1.00;0.00;0.00
76049;PMS7003;64967;50.234;19.224;2023-08-08T00:23:32;0.00;0.00;0.00
76049;PMS7003;64967;50.234;19.224;2023-08-08T00:25:59;0.00;0.00;0.00
76049;PMS7003;64967;50.234;19.224;2023-08-08T00:28:26;0.00;0.00;0.00
76049;PMS7003;64967;50.234;19.224;2023-08-08T00:30:54;0.00;0.00;0.00
76049;PMS7003;64967;50.234;19.224;2023-08-08T00:33:25;0.00;0.00;0.00
76049;PMS7003;64967;50.234;19.224;2023-08-08T00:35:52;0.00;0.00;0.00
76049;PMS7003;64967;50.234;19.224;2023-08-08T00:38:19;0.00;0.00;0.00
76049;PMS7003;64967;50.234;19.224;2023-08-08T00:40:47;0.00;0.00;0.00
76049;PMS7003;64967;50.234;19.224;2023-08-08T00:43:14;0.00;0.00;0.00
76049;PMS7003;64967;50.234;19.224;2023-08-08T00:45:42;0.00;0.00;0.00
76049;PMS7003;64967;50.234;19.224;2023-08-08T00:48:10;0.00;0.00;0.00
76049;PMS7003;64967;50.234;19.224;2023-08-08T00:50:41;1.00;0.00;0.00
76049;PMS7003;64967;50.234;19.224;2023-08-08T00:53:09;0.00;0.00;0.00
76049;PMS7003;64967;50.234;19.224;2023-08-08T00:55:36;0.00;0.00;0.00
76049;PMS7003;64967;50.234;19.224;2023-08-08T00:58:04;0.00;0.00;0.00
76049;PMS7003;64967;50.234;19.224;2023-08-08T01:00:31;0.00;0.00;0.00
76049;PMS7003;64967;50.234;19.224;2023-08-08T01:02:58;0.00;0.00;0.00
76049;PMS7003;64967;50.234;19.224;2023-08-08T01:05:29;0.00;0.00;0.00
76049;PMS7003;64967;50.234;19.224;2023-08-08T01:08:19;0.75;0.00;0.00
76049;PMS7003;64967;50.234;19.224;2023-08-08T01:11:16;0.00;0.00;0.00
76049;PMS7003;64967;50.234;19.224;2023-08-08T01:14:05;0.00;0.00;0.00
76049;PMS7003;64967;50.234;19.224;2023-08-08T01:16:53;0.00;0.00;0.00
76049;PMS7003;64967;50.234;19.224;2023-08-08T01:19:41;0.00;0.00;0.00
76049;PMS7003;64967;50.234;19.224;2023-08-08T01:22:28;0.00;0.00;0.00
76049;PMS7003;64967;50.234;19.224;2023-08-08T01:25:19;0.00;0.00;0.00
76049;PMS7003;64967;50.234;19.224;2023-08-08T01:27:47;0.00;0.00;0.00
76049;PMS7003;64967;50.234;19.224;2023-08-08T01:30:14;0.00;0.00;0.00
76049;PMS7003;64967;50.234;19.224;2023-08-08T01:32:41;0.00;0.00;0.00
76049;PMS7003;64967;50.234;19.224;2023-08-08T01:35:09;0.00;0.00;0.00
76049;PMS7003;64967;50.234;19.224;2023-08-08T01:37:36;0.00;0.00;0.00
76049;PMS7003;64967;50.234;19.224;2023-08-08T01:40:11;0.00;0.00;0.00
76049;PMS7003;64967;50.234;19.224;2023-08-08T01:42:43;0.00;0.00;0.00
76049;PMS7003;64967;50.234;19.224;2023-08-08T01:45:13;0.00;0.00;0.00
76049;PMS7003;64967;50.234;19.224;2023-08-08T01:47:42;0.00;0.00;0.00
76049;PMS7003;64967;50.234;19.224;2023-08-08T01:50:09;0.00;0.00;0.00
76049;PMS7003;64967;50.234;19.224;2023-08-08T01:52:36;0.00;0.00;0.00
76049;PMS7003;64967;50.234;19.224;2023-08-08T01:55:03;0.00;0.00;0.00
76049;PMS7003;64967;50.234;19.224;2023-08-08T01:57:31;0.00;0.00;0.00
76049;PMS7003;64967;50.234;19.224;2023-08-08T01:59:58;0.00;0.00;0.00
76049;PMS7003;64967;50.234;19.224;2023-08-08T02:02:25;0.00;0.00;0.00
76049;PMS7003;64967;50.234;19.224;2023-08-08T02:04:52;0.00;0.00;0.00
76049;PMS7003;64967;50.234;19.224;2023-08-08T02:07:19;0.00;0.00;0.00
76049;PMS7003;64967;50.234;19.224;2023-08-08T02:09:46;1.00;0.00;0.00
76049;PMS7003;64967;50.234;19.224;2023-08-08T02:12:13;0.00;0.00;0.00
76049;PMS7003;64967;50.234;19.224;2023-08-08T02:14:41;0.00;0.00;0.00
76049;PMS7003;64967;50.234;19.224;2023-08-08T02:17:08;0.00;0.00;0.00
76049;PMS7003;64967;50.234;19.224;2023-08-08T02:19:35;0.00;0.00;0.00
76049;PMS7003;64967;50.234;19.224;2023-08-08T02:22:02;0.00;0.00;0.00
76049;PMS7003;64967;50.234;19.224;2023-08-08T02:24:29;0.00;0.00;0.00
76049;PMS7003;64967;50.234;19.224;2023-08-08T02:26:56;0.00;0.00;0.00
76049;PMS7003;64967;50.234;19.224;2023-08-08T02:29:23;0.00;0.00;0.00
76049;PMS7003;64967;50.234;19.224;2023-08-08T02:31:50;1.75;0.75;0.75
76049;PMS7003;64967;50.234;19.224;2023-08-08T02:34:17;0.25;0.25;0.00
76049;PMS7003;64967;50.234;19.224;2023-08-08T02:36:44;0.75;0.00;0.00
76049;PMS7003;64967;50.234;19.224;2023-08-08T02:39:11;0.50;0.50;0.00
76049;PMS7003;64967;50.234;19.224;2023-08-08T02:41:38;0.00;0.00;0.00
76049;PMS7003;64967;50.234;19.224;2023-08-08T02:44:05;0.00;0.00;0.00
76049;PMS7003;64967;50.234;19.224;2023-08-08T02:46:33;0.25;0.25;0.00
76049;PMS7003;64967;50.234;19.224;2023-08-08T02:49:00;1.00;1.00;0.00
76049;PMS7003;64967;50.234;19.224;2023-08-08T02:51:27;0.00;0.00;0.00
76049;PMS7003;64967;50.234;19.224;2023-08-08T02:53:54;0.00;0.00;0.00
76049;PMS7003;64967;50.234;19.224;2023-08-08T02:56:21;0.00;0.00;0.00
76049;PMS7003;64967;50.234;19.224;2023-08-08T02:58:48;0.00;0.00;0.00
76049;PMS7003;64967;50.234;19.224;2023-08-08T03:01:15;0.00;0.00;0.00
76049;PMS7003;64967;50.234;19.224;2023-08-08T03:03:43;0.50;0.00;0.00
76049;PMS7003;64967;50.234;19.224;2023-08-08T03:06:10;0.00;0.00;0.00
76049;PMS7003;64967;50.234;19.224;2023-08-08T03:08:37;0.00;0.00;0.00
76049;PMS7003;64967;50.234;19.224;2023-08-08T03:11:04;0.00;0.00;0.00
76049;PMS7003;64967;50.234;19.224;2023-08-08T03:13:31;0.75;0.00;0.00
76049;PMS7003;64967;50.234;19.224;2023-08-08T03:15:58;0.00;0.00;0.00
76049;PMS7003;64967;50.234;19.224;2023-08-08T03:18:25;0.50;0.50;0.00
76049;PMS7003;64967;50.234;19.224;2023-08-08T03:20:52;0.00;0.00;0.00
76049;PMS7003;64967;50.234;19.224;2023-08-08T03:23:19;1.00;1.00;0.00
76049;PMS7003;64967;50.234;19.224;2023-08-08T03:25:46;0.75;0.00;0.00
76049;PMS7003;64967;50.234;19.224;2023-08-08T03:28:14;1.00;1.00;0.00
76049;PMS7003;64967;50.234;19.224;2023-08-08T03:30:41;0.00;0.00;0.00
76049;PMS7003;64967;50.234;19.224;2023-08-08T03:33:08;1.00;1.00;1.00
76049;PMS7003;64967;50.234;19.224;2023-08-08T03:35:35;1.00;1.00;0.75
76049;PMS7003;64967;50.234;19.224;2023-08-08T03:38:03;1.00;1.00;0.75
76049;PMS7003;64967;50.234;19.224;2023-08-08T03:40:30;0.00;0.00;0.00
76049;PMS7003;64967;50.234;19.224;2023-08-08T03:42:57;1.00;1.00;0.00
76049;PMS7003;64967;50.234;19.224;2023-08-08T03:45:24;1.00;1.00;0.25
76049;PMS7003;64967;50.234;19.224;2023-08-08T03:47:51;0.25;0.00;0.00
76049;PMS7003;64967;50.234;19.224;2023-08-08T03:50:19;0.00;0.00;0.00
76049;PMS7003;64967;50.234;19.224;2023-08-08T03:52:46;1.00;1.00;0.25
76049;PMS7003;64967;50.234;19.224;2023-08-08T03:55:14;1.25;1.25;1.00
76049;PMS7003;64967;50.234;19.224;2023-08-08T03:57:41;0.75;0.00;0.00
76049;PMS7003;64967;50.234;19.224;2023-08-08T04:00:08;1.50;1.50;1.25
76049;PMS7003;64967;50.234;19.224;2023-08-08T04:02:36;1.00;1.00;1.00
76049;PMS7003;64967;50.234;19.224;2023-08-08T04:05:03;0.75;0.50;0.25
76049;PMS7003;64967;50.234;19.224;2023-08-08T04:07:31;1.00;1.00;1.00
76049;PMS7003;64967;50.234;19.224;2023-08-08T04:09:59;1.50;0.75;0.75
76049;PMS7003;64967;50.234;19.224;2023-08-08T04:12:26;0.00;0.00;0.00
76049;PMS7003;64967;50.234;19.224;2023-08-08T04:14:53;1.00;1.00;1.00
76049;PMS7003;64967;50.234;19.224;2023-08-08T04:17:24;0.00;0.00;0.00
76049;PMS7003;64967;50.234;19.224;2023-08-08T04:19:53;1.00;1.00;1.00
76049;PMS7003;64967;50.234;19.224;2023-08-08T04:22:20;1.50;1.00;0.75
76049;PMS7003;64967;50.234;19.224;2023-08-08T04:24:47;1.00;1.00;1.00
76049;PMS7003;64967;50.234;19.224;2023-08-08T04:27:15;0.50;0.50;0.50
76049;PMS7003;64967;50.234;19.224;2023-08-08T04:29:42;0.00;0.00;0.00
76049;PMS7003;64967;50.234;19.224;2023-08-08T04:32:09;1.00;1.00;1.00
76049;PMS7003;64967;50.234;19.224;2023-08-08T04:34:36;2.00;2.00;2.00
76049;PMS7003;64967;50.234;19.224;2023-08-08T04:37:03;1.75;1.75;1.00
76049;PMS7003;64967;50.234;19.224;2023-08-08T04:39:30;1.25;1.00;1.00
76049;PMS7003;64967;50.234;19.224;2023-08-08T04:41:57;2.00;2.00;2.00
76049;PMS7003;64967;50.234;19.224;2023-08-08T04:44:25;1.25;1.25;1.00
76049;PMS7003;64967;50.234;19.224;2023-08-08T04:46:52;1.50;1.25;1.25
76049;PMS7003;64967;50.234;19.224;2023-08-08T04:49:19;2.00;2.00;1.75
76049;PMS7003;64967;50.234;19.224;2023-08-08T04:51:46;2.25;2.00;2.00
76049;PMS7003;64967;50.234;19.224;2023-08-08T04:54:14;3.00;2.00;1.00
76049;PMS7003;64967;50.234;19.224;2023-08-08T04:56:41;2.75;2.00;2.00
76049;PMS7003;64967;50.234;19.224;2023-08-08T04:59:08;1.00;1.00;1.00
76049;PMS7003;64967;50.234;19.224;2023-08-08T05:01:37;2.50;2.00;2.00
76049;PMS7003;64967;50.234;19.224;2023-08-08T05:04:04;2.75;2.25;2.00
76049;PMS7003;64967;50.234;19.224;2023-08-08T05:06:31;2.50;2.25;1.75
76049;PMS7003;64967;50.234;19.224;2023-08-08T05:08:59;2.00;2.00;2.00
76049;PMS7003;64967;50.234;19.224;2023-08-08T05:11:26;2.75;2.00;2.00
76049;PMS7003;64967;50.234;19.224;2023-08-08T05:13:53;2.25;2.00;1.00
76049;PMS7003;64967;50.234;19.224;2023-08-08T05:16:20;2.75;2.00;1.25
76049;PMS7003;64967;50.234;19.224;2023-08-08T05:18:47;3.00;2.00;1.75
76049;PMS7003;64967;50.234;19.224;2023-08-08T05:21:14;2.25;2.00;2.00
76049;PMS7003;64967;50.234;19.224;2023-08-08T05:23:41;1.00;1.00;1.00
76049;PMS7003;64967;50.234;19.224;2023-08-08T05:26:08;2.50;1.00;1.00
76049;PMS7003;64967;50.234;19.224;2023-08-08T05:28:35;1.00;1.00;1.00
76049;PMS7003;64967;50.234;19.224;2023-08-08T05:31:02;1.00;1.00;1.00
76049;PMS7003;64967;50.234;19.224;2023-08-08T05:33:29;1.00;1.00;1.00
76049;PMS7003;64967;50.234;19.224;2023-08-08T05:35:59;3.00;3.00;2.00
76049;PMS7003;64967;50.234;19.224;2023-08-08T05:38:26;2.00;2.00;2.00
76049;PMS7003;64967;50.234;19.224;2023-08-08T05:40:53;3.50;2.75;2.00
76049;PMS7003;64967;50.234;19.224;2023-08-08T05:43:20;3.00;2.75;2.00
76049;PMS7003;64967;50.234;19.224;2023-08-08T05:45:48;2.00;2.00;2.00
76049;PMS7003;64967;50.234;19.224;2023-08-08T05:48:15;2.00;2.00;2.00
76049;PMS7003;64967;50.234;19.224;2023-08-08T05:50:44;2.50;2.00;1.00
76049;PMS7003;64967;50.234;19.224;2023-08-08T05:53:11;2.00;2.00;1.25
76049;PMS7003;64967;50.234;19.224;2023-08-08T05:55:40;3.25;1.75;1.25
76049;PMS7003;64967;50.234;19.224;2023-08-08T05:58:08;2.00;2.00;2.00
76049;PMS7003;64967;50.234;19.224;2023-08-08T06:00:36;2.00;2.00;2.00
76049;PMS7003;64967;50.234;19.224;2023-08-08T06:03:05;2.00;2.00;1.25
76049;PMS7003;64967;50.234;19.224;2023-08-08T06:05:32;3.00;2.75;1.00
76049;PMS7003;64967;50.234;19.224;2023-08-08T06:07:59;5.00;4.00;2.50
76049;PMS7003;64967;50.234;19.224;2023-08-08T06:10:26;2.00;2.00;2.00
76049;PMS7003;64967;50.234;19.224;2023-08-08T06:12:53;3.75;3.00;2.50
76049;PMS7003;64967;50.234;19.224;2023-08-08T06:15:20;2.00;2.00;1.50
76049;PMS7003;64967;50.234;19.224;2023-08-08T06:17:47;1.00;1.00;1.00
76049;PMS7003;64967;50.234;19.224;2023-08-08T06:20:14;2.50;2.50;2.00
76049;PMS7003;64967;50.234;19.224;2023-08-08T06:22:42;1.00;1.00;1.00
76049;PMS7003;64967;50.234;19.224;2023-08-08T06:25:09;2.00;2.00;1.33
76049;PMS7003;64967;50.234;19.224;2023-08-08T06:27:37;2.00;2.00;1.67
76049;PMS7003;64967;50.234;19.224;2023-08-08T06:30:05;2.00;2.00;2.00
76049;PMS7003;64967;50.234;19.224;2023-08-08T06:32:32;4.67;3.00;3.00
76049;PMS7003;64967;50.234;19.224;2023-08-08T06:34:59;3.00;2.00;2.00
76049;PMS7003;64967;50.234;19.224;2023-08-08T06:37:26;2.00;1.00;1.00
76049;PMS7003;64967;50.234;19.224;2023-08-08T06:39:54;1.00;1.00;1.00
76049;PMS7003;64967;50.234;19.224;2023-08-08T06:42:24;2.00;2.00;2.00
76049;PMS7003;64967;50.234;19.224;2023-08-08T06:44:51;3.00;2.00;1.33
76049;PMS7003;64967;50.234;19.224;2023-08-08T06:47:18;2.67;2.00;1.33
76049;PMS7003;64967;50.234;19.224;2023-08-08T06:49:45;1.67;1.67;1.00
76049;PMS7003;64967;50.234;19.224;2023-08-08T06:52:12;1.00;1.00;1.00
76049;PMS7003;64967;50.234;19.224;2023-08-08T06:54:39;3.00;2.67;2.00
76049;PMS7003;64967;50.234;19.224;2023-08-08T06:57:06;3.00;2.00;2.00
76049;PMS7003;64967;50.234;19.224;2023-08-08T06:59:33;2.00;2.00;1.00
76049;PMS7003;64967;50.234;19.224;2023-08-08T07:02:00;2.67;2.33;2.00
76049;PMS7003;64967;50.234;19.224;2023-08-08T07:04:27;4.00;3.00;2.00
76049;PMS7003;64967;50.234;19.224;2023-08-08T07:06:54;2.00;1.00;1.00
76049;PMS7003;64967;50.234;19.224;2023-08-08T07:09:21;2.00;2.00;1.33
76049;PMS7003;64967;50.234;19.224;2023-08-08T07:11:49;2.33;2.33;2.00
76049;PMS7003;64967;50.234;19.224;2023-08-08T07:14:16;2.00;2.00;2.00
76049;PMS7003;64967;50.234;19.224;2023-08-08T07:16:43;2.00;1.00;1.00
76049;PMS7003;64967;50.234;19.224;2023-08-08T07:19:10;1.00;1.00;1.00
76049;PMS7003;64967;50.234;19.224;2023-08-08T07:21:38;1.67;1.67;1.33
76049;PMS7003;64967;50.234;19.224;2023-08-08T07:24:05;1.00;1.00;1.00
76049;PMS7003;64967;50.234;19.224;2023-08-08T07:26:32;2.00;2.00;2.00
76049;PMS7003;64967;50.234;19.224;2023-08-08T07:28:59;1.33;1.33;1.00
76049;PMS7003;64967;50.234;19.224;2023-08-08T07:31:26;2.00;2.00;2.00
76049;PMS7003;64967;50.234;19.224;2023-08-08T07:33:53;2.67;2.67;2.33
76049;PMS7003;64967;50.234;19.224;2023-08-08T07:36:20;1.00;1.00;1.00
76049;PMS7003;64967;50.234;19.224;2023-08-08T07:38:47;2.33;1.33;1.00
76049;PMS7003;64967;50.234;19.224;2023-08-08T07:41:14;1.67;1.67;1.33
76049;PMS7003;64967;50.234;19.224;2023-08-08T07:43:44;1.00;1.00;1.00
76049;PMS7003;64967;50.234;19.224;2023-08-08T07:46:11;2.00;1.67;1.67
76049;PMS7003;64967;50.234;19.224;2023-08-08T07:48:39;2.00;2.00;2.00
76049;PMS7003;64967;50.234;19.224;2023-08-08T07:51:06;2.00;1.67;1.33
76049;PMS7003;64967;50.234;19.224;2023-08-08T07:53:33;1.33;1.00;1.00
76049;PMS7003;64967;50.234;19.224;2023-08-08T07:56:00;2.00;2.00;1.00
76049;PMS7003;64967;50.234;19.224;2023-08-08T07:58:27;1.33;1.00;1.00
76049;PMS7003;64967;50.234;19.224;2023-08-08T08:00:54;3.00;1.67;1.33
76049;PMS7003;64967;50.234;19.224;2023-08-08T08:03:22;1.00;1.00;0.00
76049;PMS7003;64967;50.234;19.224;2023-08-08T08:05:49;1.00;1.00;1.00
76049;PMS7003;64967;50.234;19.224;2023-08-08T08:08:16;1.00;1.00;1.00
76049;PMS7003;64967;50.234;19.224;2023-08-08T08:10:43;2.00;2.00;1.67
76049;PMS7003;64967;50.234;19.224;2023-08-08T08:13:12;2.00;2.00;2.00
76049;PMS7003;64967;50.234;19.224;2023-08-08T08:15:39;1.00;1.00;1.00
76049;PMS7003;64967;50.234;19.224;2023-08-08T08:18:06;2.00;2.00;1.00
76049;PMS7003;64967;50.234;19.224;2023-08-08T08:20:33;3.00;2.00;2.00
76049;PMS7003;64967;50.234;19.224;2023-08-08T08:23:00;1.00;1.00;1.00
76049;PMS7003;64967;50.234;19.224;2023-08-08T08:25:27;2.00;2.00;2.00
76049;PMS7003;64967;50.234;19.224;2023-08-08T08:27:54;3.00;3.00;2.00
76049;PMS7003;64967;50.234;19.224;2023-08-08T08:30:21;2.33;1.67;1.67
76049;PMS7003;64967;50.234;19.224;2023-08-08T08:32:52;2.00;2.00;1.33
76049;PMS7003;64967;50.234;19.224;2023-08-08T08:35:19;1.67;1.00;0.00
76049;PMS7003;64967;50.234;19.224;2023-08-08T08:37:47;2.33;1.67;1.00
76049;PMS7003;64967;50.234;19.224;2023-08-08T08:40:14;4.00;2.00;2.00
76049;PMS7003;64967;50.234;19.224;2023-08-08T08:42:41;1.00;0.67;0.67
76049;PMS7003;64967;50.234;19.224;2023-08-08T08:45:10;1.33;1.00;1.00
76049;PMS7003;64967;50.234;19.224;2023-08-08T08:47:40;2.00;1.00;1.00
76049;PMS7003;64967;50.234;19.224;2023-08-08T08:50:09;2.00;2.00;1.33
76049;PMS7003;64967;50.234;19.224;2023-08-08T08:52:37;2.00;1.00;1.00
76049;PMS7003;64967;50.234;19.224;2023-08-08T08:55:04;1.67;1.00;1.00
76049;PMS7003;64967;50.234;19.224;2023-08-08T08:57:33;1.00;1.00;1.00
76049;PMS7003;64967;50.234;19.224;2023-08-08T09:00:02;2.33;2.00;1.67
76049;PMS7003;64967;50.234;19.224;2023-08-08T09:02:29;2.00;2.00;1.33
76049;PMS7003;64967;50.234;19.224;2023-08-08T09:04:57;1.67;1.67;1.00
76049;PMS7003;64967;50.234;19.224;2023-08-08T09:07:28;2.67;1.00;1.00
76049;PMS7003;64967;50.234;19.224;2023-08-08T09:09:58;2.00;2.00;1.00
76049;PMS7003;64967;50.234;19.224;2023-08-08T09:12:28;2.00;2.00;1.00
76049;PMS7003;64967;50.234;19.224;2023-08-08T09:14:58;3.33;2.00;2.00
76049;PMS7003;64967;50.234;19.224;2023-08-08T09:17:25;1.00;1.00;1.00
76049;PMS7003;64967;50.234;19.224;2023-08-08T09:20:07;3.00;2.00;1.00
76049;PMS7003;64967;50.234;19.224;2023-08-08T09:22:37;3.00;3.00;2.00
76049;PMS7003;64967;50.234;19.224;2023-08-08T09:25:05;1.67;1.67;1.00
76049;PMS7003;64967;50.234;19.224;2023-08-08T09:27:33;1.00;1.00;1.00
76049;PMS7003;64967;50.234;19.224;2023-08-08T09:30:01;1.33;1.33;1.00
76049;PMS7003;64967;50.234;19.224;2023-08-08T09:32:32;3.00;3.00;2.00
76049;PMS7003;64967;50.234;19.224;2023-08-08T09:34:59;2.00;2.00;2.00
76049;PMS7003;64967;50.234;19.224;2023-08-08T09:37:27;2.00;2.00;2.00
76049;PMS7003;64967;50.234;19.224;2023-08-08T09:39:59;2.00;2.00;2.00
76049;PMS7003;64967;50.234;19.224;2023-08-08T09:42:27;1.67;1.67;1.67
76049;PMS7003;64967;50.234;19.224;2023-08-08T09:44:54;3.00;3.00;2.67
76049;PMS7003;64967;50.234;19.224;2023-08-08T09:47:23;2.00;2.00;2.00
76049;PMS7003;64967;50.234;19.224;2023-08-08T09:50:00;1.00;1.00;1.00
76049;PMS7003;64967;50.234;19.224;2023-08-08T09:52:34;2.00;1.00;1.00
76049;PMS7003;64967;50.234;19.224;2023-08-08T09:55:02;2.67;2.00;1.67
76049;PMS7003;64967;50.234;19.224;2023-08-08T09:57:30;3.00;2.00;2.00
76049;PMS7003;64967;50.234;19.224;2023-08-08T09:59:57;3.00;2.00;2.00
76049;PMS7003;64967;50.234;19.224;2023-08-08T10:02:24;1.00;1.00;1.00
76049;PMS7003;64967;50.234;19.224;2023-08-08T10:04:52;2.33;2.00;2.00
76049;PMS7003;64967;50.234;19.224;2023-08-08T10:07:22;3.00;1.00;1.00
76049;PMS7003;64967;50.234;19.224;2023-08-08T10:09:49;2.00;1.67;1.33
76049;PMS7003;64967;50.234;19.224;2023-08-08T10:12:16;2.00;2.00;1.00
76049;PMS7003;64967;50.234;19.224;2023-08-08T10:14:44;2.67;2.67;2.00
76049;PMS7003;64967;50.234;19.224;2023-08-08T10:17:15;2.33;2.00;2.00
76049;PMS7003;64967;50.234;19.224;2023-08-08T10:19:53;3.00;3.00;2.00
76049;PMS7003;64967;50.234;19.224;2023-08-08T10:22:22;2.33;2.00;1.00
76049;PMS7003;64967;50.234;19.224;2023-08-08T10:24:52;1.67;1.67;1.67
76049;PMS7003;64967;50.234;19.224;2023-08-08T10:27:35;2.00;1.33;1.00
76049;PMS7003;64967;50.234;19.224;2023-08-08T10:30:07;2.00;2.00;2.00
76049;PMS7003;64967;50.234;19.224;2023-08-08T10:32:40;2.00;2.00;1.67
76049;PMS7003;64967;50.234;19.224;2023-08-08T10:35:09;1.00;1.00;1.00
76049;PMS7003;64967;50.234;19.224;2023-08-08T10:37:38;2.33;2.00;2.00
76049;PMS7003;64967;50.234;19.224;2023-08-08T10:40:06;2.00;1.33;1.33
76049;PMS7003;64967;50.234;19.224;2023-08-08T10:42:40;2.00;2.00;1.33
76049;PMS7003;64967;50.234;19.224;2023-08-08T10:45:12;2.00;2.00;2.00
76049;PMS7003;64967;50.234;19.224;2023-08-08T10:47:41;2.00;2.00;2.00
76049;PMS7003;64967;50.234;19.224;2023-08-08T10:50:09;3.00;3.00;2.00
76049;PMS7003;64967;50.234;19.224;2023-08-08T10:52:49;3.67;3.33;2.67
76049;PMS7003;64967;50.234;19.224;2023-08-08T10:57:57;3.00;3.00;3.00
76049;PMS7003;64967;50.234;19.224;2023-08-08T11:00:35;6.00;5.00;4.00
76049;PMS7003;64967;50.234;19.224;2023-08-08T11:03:03;3.00;3.00;3.00
76049;PMS7003;64967;50.234;19.224;2023-08-08T11:05:33;3.00;3.00;3.00
76049;PMS7003;64967;50.234;19.224;2023-08-08T11:08:05;5.00;5.00;5.00
76049;PMS7003;64967;50.234;19.224;2023-08-08T11:10:39;6.67;6.00;5.00
76049;PMS7003;64967;50.234;19.224;2023-08-08T11:13:07;5.00;5.00;4.00
76049;PMS7003;64967;50.234;19.224;2023-08-08T11:15:36;3.00;3.00;3.00
76049;PMS7003;64967;50.234;19.224;2023-08-08T11:18:05;3.00;3.00;3.00
76049;PMS7003;64967;50.234;19.224;2023-08-08T11:20:33;2.00;2.00;1.67
76049;PMS7003;64967;50.234;19.224;2023-08-08T11:23:02;3.00;3.00;2.00
76049;PMS7003;64967;50.234;19.224;2023-08-08T11:25:32;1.67;1.67;1.67
76049;PMS7003;64967;50.234;19.224;2023-08-08T11:27:59;3.00;2.00;2.00
76049;PMS7003;64967;50.234;19.224;2023-08-08T11:30:30;3.67;2.00;2.00
76049;PMS7003;64967;50.234;19.224;2023-08-08T11:33:00;0.00;0.00;0.00
76049;PMS7003;64967;50.234;19.224;2023-08-08T11:35:31;1.00;1.00;1.00
76049;PMS7003;64967;50.234;19.224;2023-08-08T11:37:58;1.00;1.00;1.00
76049;PMS7003;64967;50.234;19.224;2023-08-08T11:40:27;1.00;1.00;0.33
76049;PMS7003;64967;50.234;19.224;2023-08-08T11:42:55;1.00;1.00;1.00
76049;PMS7003;64967;50.234;19.224;2023-08-08T11:45:26;1.67;1.67;1.67
76049;PMS7003;64967;50.234;19.224;2023-08-08T11:47:53;2.00;1.33;1.33
76049;PMS7003;64967;50.234;19.224;2023-08-08T11:50:22;2.33;2.00;1.00
76049;PMS7003;64967;50.234;19.224;2023-08-08T11:52:51;1.00;1.00;1.00
76049;PMS7003;64967;50.234;19.224;2023-08-08T11:55:20;1.00;1.00;1.00
76049;PMS7003;64967;50.234;19.224;2023-08-08T11:57:54;1.67;1.00;1.00
76049;PMS7003;64967;50.234;19.224;2023-08-08T12:00:29;1.67;1.67;1.00
76049;PMS7003;64967;50.234;19.224;2023-08-08T12:02:57;1.67;1.00;1.00
76049;PMS7003;64967;50.234;19.224;2023-08-08T12:05:27;0.00;0.00;0.00
76049;PMS7003;64967;50.234;19.224;2023-08-08T12:07:55;2.00;2.00;2.00
76049;PMS7003;64967;50.234;19.224;2023-08-08T12:10:22;2.00;1.67;1.33
76049;PMS7003;64967;50.234;19.224;2023-08-08T12:12:54;2.00;2.00;1.00
76049;PMS7003;64967;50.234;19.224;2023-08-08T12:15:24;1.00;1.00;0.67
76049;PMS7003;64967;50.234;19.224;2023-08-08T12:17:57;1.33;1.00;1.00
76049;PMS7003;64967;50.234;19.224;2023-08-08T12:20:29;1.00;1.00;1.00
76049;PMS7003;64967;50.234;19.224;2023-08-08T12:22:58;1.00;1.00;1.00
76049;PMS7003;64967;50.234;19.224;2023-08-08T12:25:25;1.00;1.00;1.00
76049;PMS7003;64967;50.234;19.224;2023-08-08T12:27:52;2.00;2.00;1.00
76049;PMS7003;64967;50.234;19.224;2023-08-08T12:30:20;3.00;1.00;1.00
76049;PMS7003;64967;50.234;19.224;2023-08-08T12:32:47;2.00;2.00;2.00
76049;PMS7003;64967;50.234;19.224;2023-08-08T12:35:14;1.00;1.00;1.00
76049;PMS7003;64967;50.234;19.224;2023-08-08T12:37:43;1.00;1.00;0.67
76049;PMS7003;64967;50.234;19.224;2023-08-08T12:40:10;1.67;1.67;1.00
76049;PMS7003;64967;50.234;19.224;2023-08-08T12:42:38;2.00;1.00;1.00
76049;PMS7003;64967;50.234;19.224;2023-08-08T12:45:05;2.00;2.00;2.00
76049;PMS7003;64967;50.234;19.224;2023-08-08T12:47:33;2.00;2.00;1.00
76049;PMS7003;64967;50.234;19.224;2023-08-08T12:50:04;0.67;0.67;0.67
76049;PMS7003;64967;50.234;19.224;2023-08-08T12:52:32;1.00;1.00;1.00
76049;PMS7003;64967;50.234;19.224;2023-08-08T12:54:59;1.33;1.33;1.33
76049;PMS7003;64967;50.234;19.224;2023-08-08T12:57:26;1.00;1.00;1.00
76049;PMS7003;64967;50.234;19.224;2023-08-08T12:59:53;0.67;0.67;0.67
76049;PMS7003;64967;50.234;19.224;2023-08-08T13:02:20;1.00;1.00;1.00
76049;PMS7003;64967;50.234;19.224;2023-08-08T13:04:47;1.00;1.00;1.00
76049;PMS7003;64967;50.234;19.224;2023-08-08T13:07:14;1.00;1.00;1.00
76049;PMS7003;64967;50.234;19.224;2023-08-08T13:09:43;1.00;1.00;1.00
76049;PMS7003;64967;50.234;19.224;2023-08-08T13:12:10;1.00;0.33;0.33
76049;PMS7003;64967;50.234;19.224;2023-08-08T13:14:37;1.00;0.33;0.00
76049;PMS7003;64967;50.234;19.224;2023-08-08T13:17:04;7.00;7.00;5.33
76049;PMS7003;64967;50.234;19.224;2023-08-08T13:19:31;4.00;4.00;3.00
76049;PMS7003;64967;50.234;19.224;2023-08-08T13:21:58;4.00;4.00;4.00
76049;PMS7003;64967;50.234;19.224;2023-08-08T13:24:26;3.00;3.00;3.00
76049;PMS7003;64967;50.234;19.224;2023-08-08T13:26:53;2.00;2.00;2.00
76049;PMS7003;64967;50.234;19.224;2023-08-08T13:29:20;1.67;1.67;1.33
76049;PMS7003;64967;50.234;19.224;2023-08-08T13:31:47;1.50;1.00;1.00
76049;PMS7003;64967;50.234;19.224;2023-08-08T13:34:14;0.67;0.67;0.00
76049;PMS7003;64967;50.234;19.224;2023-08-08T13:36:41;1.00;1.00;1.00
76049;PMS7003;64967;50.234;19.224;2023-08-08T13:39:08;1.00;1.00;0.67
76049;PMS7003;64967;50.234;19.224;2023-08-08T13:41:38;1.00;1.00;1.00
76049;PMS7003;64967;50.234;19.224;2023-08-08T13:44:05;1.00;1.00;1.00
76049;PMS7003;64967;50.234;19.224;2023-08-08T13:46:32;0.00;0.00;0.00
76049;PMS7003;64967;50.234;19.224;2023-08-08T13:49:00;1.33;1.00;1.00
76049;PMS7003;64967;50.234;19.224;2023-08-08T13:51:27;1.67;1.00;1.00
76049;PMS7003;64967;50.234;19.224;2023-08-08T13:53:54;0.00;0.00;0.00
76049;PMS7003;64967;50.234;19.224;2023-08-08T13:56:21;2.33;1.33;1.00
76049;PMS7003;64967;50.234;19.224;2023-08-08T13:58:48;1.00;1.00;1.00
76049;PMS7003;64967;50.234;19.224;2023-08-08T14:01:15;1.00;1.00;1.00
76049;PMS7003;64967;50.234;19.224;2023-08-08T14:03:42;1.00;1.00;1.00
76049;PMS7003;64967;50.234;19.224;2023-08-08T14:06:11;2.00;2.00;1.00
76049;PMS7003;64967;50.234;19.224;2023-08-08T14:08:38;1.00;1.00;0.33
76049;PMS7003;64967;50.234;19.224;2023-08-08T14:11:05;1.00;1.00;1.00
76049;PMS7003;64967;50.234;19.224;2023-08-08T14:13:32;1.67;1.00;1.00
76049;PMS7003;64967;50.234;19.224;2023-08-08T14:16:04;1.33;1.00;1.00
76049;PMS7003;64967;50.234;19.224;2023-08-08T14:18:31;1.00;1.00;0.00
76049;PMS7003;64967;50.234;19.224;2023-08-08T14:20:58;0.00;0.00;0.00